Pagrindinis puslapis
METAR-TAF:

METAR-TAF

Oro uostai :

Eliazihas, Turkija

platuma: 38-36N, ilguma: 039-17E, Aukštis: 902 m

Dabartinis oras

Ataskaita buvo paskelbta 1 valandą ir 15 minutes, ne 23:50 UTC
Vėjas 7 kt iš Rytų/Pietryčių
Temperatūra 19°C
Drėgmė 21%
Slėgis 1017 hPa
Matomumas 10 km arba daugiau
Mažai debesys ne aukštis 3500 ft
Su prošvaistėmis ne aukštis 10000 ft

METAR: LTCA 312350Z 12007KT 9999 FEW035 BKN100 19/M04 Q1017 NOSIG

Laikas: 04:05 (01:05 UTC)

Prognozė

Ataskaita buvo paskelbta 2 valandos ir 25 minutes, ne 22:40 UTC
Prognozė galioja nuo 01 metu 00 UTC su 01 metu 09 UTC
Vėjas 8 kt iš Rytų/Pietryčių
Matomumas 10 km arba daugiau
Mažai debesys ne aukštis 3500 ft
Su prošvaistėmis ne aukštis 10000 ft
Laikinai
nuo 01 metu 02 UTC su 01 metu 06 UTC
Su prošvaistėmis ne aukštis 3300 ft
Su prošvaistėmis ne aukštis 10000 ft
lietus

TAF: LTCA 312240Z 0100/0109 11008KT 9999 FEW035 BKN100 TEMPO 0102/0106 -SHRA BKN033 BKN100

Orai ataskaitas ir orų prognozės (METAR, TAF).

turimą stotys yra geltonos ir raudonos taškus žemėlapyje.

Perkelti pele per norėdami pamatyti stoties vardą.

Tada spustelėkite, norėdami matyti oro stebėjimo ir prognozės.

Norėdami pakeisti žemėlapį: spustelėkite ant žalios mygtukų su juodo kryžiaus žemyn,; žalią mygtuką su brūkšneliu, jei norite nutolinti; arba žalių rodyklių gretimoms žemėlapius.


METAR-TAF: